createdAt,value
2022-12-04T00:00:06.421Z,21.30
2022-12-04T00:01:38.211Z,21.53
2022-12-04T00:03:09.868Z,22.10
2022-12-04T00:04:44.414Z,21.70
2022-12-04T00:06:18.774Z,21.70
2022-12-04T00:07:51.005Z,22.20
2022-12-04T00:09:23.239Z,21.07
2022-12-04T00:10:54.983Z,20.50
2022-12-04T00:12:26.834Z,23.00
2022-12-04T00:14:06.088Z,21.30
2022-12-04T00:15:42.507Z,20.80
2022-12-04T00:17:14.581Z,22.30
2022-12-04T00:18:46.853Z,23.10
2022-12-04T00:20:18.581Z,21.60
2022-12-04T00:21:51.051Z,22.00
2022-12-04T00:23:22.907Z,22.23
2022-12-04T00:24:54.739Z,21.77
2022-12-04T00:26:27.690Z,22.53
2022-12-04T00:27:59.604Z,23.20
2022-12-04T00:29:34.158Z,23.10
2022-12-04T00:31:12.087Z,21.40
2022-12-04T00:32:43.850Z,22.87
2022-12-04T00:34:15.607Z,22.30
2022-12-04T00:35:47.456Z,21.67
2022-12-04T00:37:19.300Z,22.53
2022-12-04T00:38:51.372Z,23.73
2022-12-04T00:40:23.105Z,22.87
2022-12-04T00:41:54.829Z,22.90
2022-12-04T00:43:27.750Z,22.20
2022-12-04T00:44:59.500Z,21.73
2022-12-04T00:46:31.454Z,22.63
2022-12-04T00:48:04.524Z,22.70
2022-12-04T00:49:36.314Z,23.07
2022-12-04T00:51:11.515Z,22.33
2022-12-04T00:52:43.202Z,20.50
2022-12-04T00:54:14.846Z,21.20
2022-12-04T00:55:46.544Z,22.20
2022-12-04T00:57:18.161Z,21.10
2022-12-04T00:58:53.423Z,20.50
2022-12-04T01:00:25.223Z,20.90
2022-12-04T01:01:56.870Z,20.63
2022-12-04T01:03:28.704Z,20.33
2022-12-04T01:05:01.651Z,21.23
2022-12-04T01:06:34.460Z,20.47
2022-12-04T01:08:06.844Z,20.20
2022-12-04T01:09:38.533Z,21.30
2022-12-04T01:11:10.188Z,20.70
2022-12-04T01:12:41.903Z,22.87
2022-12-04T01:14:13.531Z,21.20
2022-12-04T01:15:47.195Z,22.37
2022-12-04T01:17:18.896Z,22.40
2022-12-04T01:18:50.928Z,21.17
2022-12-04T01:20:22.640Z,23.17
2022-12-04T01:21:54.296Z,22.80
2022-12-04T01:23:26.003Z,22.23
2022-12-04T01:24:57.656Z,22.73
2022-12-04T01:26:29.318Z,21.87
2022-12-04T01:28:00.931Z,21.73
2022-12-04T01:29:32.551Z,21.37
2022-12-04T01:31:13.492Z,23.47
2022-12-04T01:32:45.460Z,21.43
2022-12-04T01:34:17.344Z,21.40
2022-12-04T01:35:56.832Z,21.47
2022-12-04T01:37:31.587Z,21.97
2022-12-04T01:39:03.564Z,22.30
2022-12-04T01:40:35.369Z,21.27
2022-12-04T01:42:14.222Z,20.83
2022-12-04T01:44:06.045Z,21.07
2022-12-04T01:45:43.454Z,20.70
2022-12-04T01:47:15.079Z,21.20
2022-12-04T01:48:53.168Z,19.27
2022-12-04T01:50:25.252Z,20.50
2022-12-04T01:52:05.211Z,19.87
2022-12-04T01:53:40.351Z,20.00
2022-12-04T01:55:12.363Z,18.93
2022-12-04T01:57:14.936Z,19.27
2022-12-04T01:58:51.904Z,19.60
2022-12-04T02:00:24.181Z,19.53
2022-12-04T02:02:09.768Z,19.20
2022-12-04T02:03:41.698Z,18.20
2022-12-04T02:05:17.858Z,19.50
2022-12-04T02:06:49.708Z,19.43
2022-12-04T02:08:21.939Z,18.83
2022-12-04T02:09:56.131Z,18.87
2022-12-04T02:11:51.893Z,19.10
2022-12-04T02:13:36.229Z,18.90
2022-12-04T02:15:20.904Z,19.23
2022-12-04T02:17:14.621Z,19.07
2022-12-04T02:18:59.004Z,19.00
2022-12-04T02:20:36.796Z,19.47
2022-12-04T02:22:50.420Z,19.00
2022-12-04T02:25:00.694Z,20.00
2022-12-04T02:26:43.081Z,18.97
2022-12-04T02:28:48.821Z,19.10
2022-12-04T02:30:20.654Z,20.10
2022-12-04T02:32:13.325Z,19.80
2022-12-04T02:34:08.005Z,17.73
2022-12-04T02:35:45.797Z,19.77
2022-12-04T02:37:21.645Z,19.80
2022-12-04T02:39:14.691Z,19.03
2022-12-04T02:41:11.328Z,19.20
2022-12-04T02:42:53.720Z,19.30
2022-12-04T02:44:37.050Z,20.07
2022-12-04T02:46:33.474Z,20.13
2022-12-04T02:48:07.585Z,18.80
2022-12-04T02:49:49.374Z,20.50
2022-12-04T02:51:23.764Z,20.33
2022-12-04T02:53:07.301Z,19.80
2022-12-04T02:54:46.640Z,20.13
2022-12-04T02:56:26.885Z,20.27
2022-12-04T02:58:05.027Z,19.47
2022-12-04T02:59:45.555Z,20.07
2022-12-04T03:01:23.054Z,21.20
2022-12-04T03:03:19.343Z,19.70
2022-12-04T03:04:53.552Z,19.60
2022-12-04T03:06:29.122Z,20.40
2022-12-04T03:08:16.180Z,19.13
2022-12-04T03:10:02.710Z,19.47
2022-12-04T03:11:38.447Z,20.07
2022-12-04T03:13:18.417Z,19.50
2022-12-04T03:14:58.141Z,19.13
2022-12-04T03:16:36.066Z,18.90
2022-12-04T03:18:13.503Z,19.83
2022-12-04T03:19:50.473Z,20.40
2022-12-04T03:21:28.178Z,20.33
2022-12-04T03:23:04.851Z,20.70
2022-12-04T03:24:44.803Z,19.83
2022-12-04T03:26:22.416Z,20.33
2022-12-04T03:28:01.600Z,19.00
2022-12-04T03:29:42.171Z,19.80
2022-12-04T03:31:17.191Z,19.70
2022-12-04T03:33:07.165Z,20.73
2022-12-04T03:34:58.876Z,19.97
2022-12-04T03:36:39.547Z,20.30
2022-12-04T03:38:16.691Z,20.50
2022-12-04T03:40:05.877Z,19.60
2022-12-04T03:42:11.949Z,19.43
2022-12-04T03:43:55.552Z,19.00
2022-12-04T03:45:35.509Z,20.43
2022-12-04T03:47:18.578Z,20.03
2022-12-04T03:49:04.596Z,20.67
2022-12-04T03:50:40.352Z,19.53
2022-12-04T03:52:32.185Z,20.07
2022-12-04T03:54:35.359Z,21.00
2022-12-04T03:56:16.404Z,18.17
2022-12-04T03:57:51.046Z,21.00
2022-12-04T03:59:28.736Z,20.53
2022-12-04T04:01:04.020Z,21.43
2022-12-04T04:03:12.276Z,19.93
2022-12-04T04:04:47.806Z,19.50
2022-12-04T04:06:24.036Z,20.13
2022-12-04T04:08:21.509Z,19.57
2022-12-04T04:09:59.530Z,18.50
2022-12-04T04:12:00.620Z,20.10
2022-12-04T04:13:57.378Z,19.67
2022-12-04T04:15:47.913Z,19.33
2022-12-04T04:17:43.807Z,19.70
2022-12-04T04:19:36.958Z,19.60
2022-12-04T04:21:27.347Z,18.23
2022-12-04T04:23:21.319Z,20.53
2022-12-04T04:25:04.034Z,19.43
2022-12-04T04:26:43.728Z,19.13
2022-12-04T04:28:33.330Z,18.03
2022-12-04T04:30:10.929Z,18.20
2022-12-04T04:32:14.004Z,19.20
2022-12-04T04:34:15.169Z,18.43
2022-12-04T04:36:07.070Z,19.73
2022-12-04T04:38:01.245Z,21.03
2022-12-04T04:40:05.052Z,20.23
2022-12-04T04:41:46.937Z,18.50
2022-12-04T04:43:29.413Z,18.50
2022-12-04T04:45:08.349Z,18.93
2022-12-04T04:46:50.008Z,19.60
2022-12-04T04:48:28.656Z,18.97
2022-12-04T04:50:02.981Z,19.60
2022-12-04T04:51:35.437Z,20.47
2022-12-04T04:53:17.731Z,19.23
2022-12-04T04:54:49.581Z,19.47
2022-12-04T04:56:22.474Z,18.67
2022-12-04T04:57:54.303Z,19.17
2022-12-04T04:59:25.974Z,19.03
2022-12-04T05:01:13.113Z,19.53
2022-12-04T05:02:45.078Z,17.33
2022-12-04T05:04:16.779Z,18.30
2022-12-04T05:05:48.630Z,18.90
2022-12-04T05:07:20.386Z,18.43
2022-12-04T05:08:52.142Z,18.87
2022-12-04T05:10:26.729Z,17.57
2022-12-04T05:11:58.591Z,18.10
2022-12-04T05:13:31.158Z,18.87
2022-12-04T05:15:03.099Z,17.27
2022-12-04T05:16:34.996Z,18.27
2022-12-04T05:18:06.942Z,16.83
2022-12-04T05:19:54.080Z,17.47
2022-12-04T05:21:26.110Z,17.10
2022-12-04T05:22:58.059Z,18.10
2022-12-04T05:24:29.742Z,17.67
2022-12-04T05:26:03.303Z,18.10
2022-12-04T05:27:35.058Z,17.80
2022-12-04T05:29:06.900Z,17.67
2022-12-04T05:30:38.651Z,18.13
2022-12-04T05:32:10.415Z,17.13
2022-12-04T05:33:42.160Z,19.00
2022-12-04T05:35:13.890Z,16.80
2022-12-04T05:36:48.461Z,17.27
2022-12-04T05:38:20.223Z,17.10
2022-12-04T05:39:52.748Z,17.13
2022-12-04T05:41:24.600Z,15.90
2022-12-04T05:42:57.466Z,17.17
2022-12-04T05:44:29.276Z,18.00
2022-12-04T05:46:08.546Z,15.50
2022-12-04T05:47:44.509Z,16.50
2022-12-04T05:49:19.127Z,16.00
2022-12-04T05:50:50.879Z,15.00
2022-12-04T05:52:22.628Z,16.07
2022-12-04T05:53:54.472Z,14.93
2022-12-04T05:55:26.328Z,16.73
2022-12-04T05:56:58.277Z,15.73
2022-12-04T05:58:30.245Z,16.53
2022-12-04T06:00:02.039Z,15.20
2022-12-04T06:01:43.481Z,15.70
2022-12-04T06:03:15.275Z,16.10
2022-12-04T06:04:47.177Z,14.57
2022-12-04T06:06:22.686Z,15.20
2022-12-04T06:07:54.498Z,14.60
2022-12-04T06:09:26.143Z,16.50
2022-12-04T06:10:57.789Z,14.73
2022-12-04T06:12:30.773Z,14.90
2022-12-04T06:14:05.075Z,14.10
2022-12-04T06:15:38.956Z,15.20
2022-12-04T06:17:10.562Z,15.33
2022-12-04T06:18:42.750Z,15.43
2022-12-04T06:20:14.522Z,14.37
2022-12-04T06:21:48.825Z,14.70
2022-12-04T06:23:20.457Z,15.03
2022-12-04T06:24:52.093Z,14.30
2022-12-04T06:26:24.556Z,14.63
2022-12-04T06:27:56.290Z,14.43
2022-12-04T06:29:28.016Z,14.20
2022-12-04T06:31:19.023Z,13.87
2022-12-04T06:32:50.717Z,13.80
2022-12-04T06:34:22.310Z,12.07
2022-12-04T06:36:10.429Z,12.83
2022-12-04T06:37:42.064Z,13.37
2022-12-04T06:39:18.440Z,13.20
2022-12-04T06:40:50.673Z,13.40
2022-12-04T06:42:22.359Z,13.63
2022-12-04T06:43:54.818Z,13.57
2022-12-04T06:45:26.463Z,12.70
2022-12-04T06:47:00.971Z,12.87
2022-12-04T06:48:33.581Z,12.70
2022-12-04T06:50:05.855Z,12.77
2022-12-04T06:51:39.881Z,12.43
2022-12-04T06:53:11.607Z,12.03
2022-12-04T06:54:43.263Z,12.53
2022-12-04T06:56:18.079Z,13.10
2022-12-04T06:57:49.730Z,12.60
2022-12-04T06:59:21.406Z,12.77
2022-12-04T07:00:53.375Z,13.00
2022-12-04T07:02:25.128Z,13.17
2022-12-04T07:03:58.056Z,12.63
2022-12-04T07:05:29.639Z,12.30
2022-12-04T07:07:01.262Z,12.10
2022-12-04T07:08:33.378Z,11.77
2022-12-04T07:10:05.643Z,11.53
2022-12-04T07:11:38.862Z,12.33
2022-12-04T07:13:11.215Z,12.87
2022-12-04T07:14:42.815Z,11.50
2022-12-04T07:16:16.977Z,12.47
2022-12-04T07:17:48.638Z,12.00
2022-12-04T07:19:20.319Z,11.20
2022-12-04T07:20:51.898Z,13.13
2022-12-04T07:22:23.515Z,11.00
2022-12-04T07:23:57.200Z,12.73
2022-12-04T07:25:29.500Z,12.50
2022-12-04T07:27:01.240Z,11.87
2022-12-04T07:28:33.247Z,11.80
2022-12-04T07:30:08.788Z,12.40
2022-12-04T07:31:44.360Z,12.00
2022-12-04T07:33:16.307Z,12.27
2022-12-04T07:34:48.080Z,11.87
2022-12-04T07:36:21.864Z,11.40
2022-12-04T07:37:53.509Z,11.80
2022-12-04T07:39:25.147Z,12.13
2022-12-04T07:40:58.434Z,11.30
2022-12-04T07:42:30.119Z,12.10
2022-12-04T07:44:01.715Z,12.40
2022-12-04T07:45:33.410Z,11.07
2022-12-04T07:47:05.096Z,11.20
2022-12-04T07:48:36.754Z,10.77
2022-12-04T07:50:08.836Z,11.73
2022-12-04T07:51:40.547Z,10.53
2022-12-04T07:53:12.217Z,10.80
2022-12-04T07:54:43.891Z,10.80
2022-12-04T07:56:16.559Z,11.87
2022-12-04T07:57:48.177Z,11.60
2022-12-04T07:59:20.080Z,11.77
2022-12-04T08:00:51.766Z,11.40
2022-12-04T08:02:27.142Z,11.00
2022-12-04T08:04:00.385Z,11.70
2022-12-04T08:05:32.185Z,10.50
2022-12-04T08:07:03.797Z,11.50
2022-12-04T08:08:36.253Z,11.57
2022-12-04T08:10:08.556Z,10.70
2022-12-04T08:11:40.322Z,11.30
2022-12-04T08:13:11.927Z,12.27
2022-12-04T08:14:43.547Z,12.00
2022-12-04T08:16:15.486Z,12.33
2022-12-04T08:17:47.208Z,11.63
2022-12-04T08:19:18.828Z,12.87
2022-12-04T08:20:50.468Z,13.17
2022-12-04T08:22:25.227Z,12.70
2022-12-04T08:23:58.524Z,13.20
2022-12-04T08:25:30.237Z,12.67
2022-12-04T08:27:01.950Z,12.93
2022-12-04T08:28:34.261Z,12.83
2022-12-04T08:30:06.694Z,11.77
2022-12-04T08:31:38.449Z,12.20
2022-12-04T08:33:10.126Z,11.90
2022-12-04T08:34:42.010Z,11.27
2022-12-04T08:36:17.366Z,12.90
2022-12-04T08:37:49.026Z,11.73
2022-12-04T08:39:20.963Z,12.37
2022-12-04T08:40:52.691Z,11.00
2022-12-04T08:42:24.534Z,13.00
2022-12-04T08:43:59.486Z,11.87
2022-12-04T08:45:31.178Z,11.90
2022-12-04T08:47:02.842Z,11.33
2022-12-04T08:48:34.915Z,11.60
2022-12-04T08:50:07.190Z,11.50
2022-12-04T08:51:39.835Z,11.53
2022-12-04T08:53:11.448Z,10.90
2022-12-04T08:54:43.103Z,11.17
2022-12-04T08:56:14.883Z,11.00
2022-12-04T08:57:46.590Z,10.97
2022-12-04T08:59:18.200Z,11.30
2022-12-04T09:00:50.292Z,10.83
2022-12-04T09:02:21.968Z,11.03
2022-12-04T09:03:53.990Z,11.77
2022-12-04T09:05:25.744Z,10.80
2022-12-04T09:06:57.331Z,10.10
2022-12-04T09:08:31.142Z,10.37
2022-12-04T09:10:03.582Z,11.17
2022-12-04T09:11:35.210Z,11.00
2022-12-04T09:13:07.243Z,9.87
2022-12-04T09:14:39.114Z,10.23
2022-12-04T09:16:14.269Z,11.07
2022-12-04T09:17:46.003Z,9.73
2022-12-04T09:19:17.627Z,9.63
2022-12-04T09:21:01.287Z,10.73
2022-12-04T09:22:57.906Z,9.75
2022-12-04T09:24:26.543Z,9.60
2022-12-04T09:25:58.171Z,9.80
2022-12-04T09:27:29.842Z,10.40
2022-12-04T09:29:03.549Z,10.37
2022-12-04T09:30:35.208Z,9.00
2022-12-04T09:32:07.013Z,10.47
2022-12-04T09:33:38.690Z,9.67
2022-12-04T09:35:10.582Z,10.03
2022-12-04T09:36:42.247Z,9.70
2022-12-04T09:38:13.879Z,9.33
2022-12-04T09:39:46.166Z,9.63
2022-12-04T09:41:36.296Z,9.90
2022-12-04T09:43:30.732Z,9.53
2022-12-04T09:45:16.599Z,9.53
2022-12-04T09:47:04.315Z,9.97
2022-12-04T09:48:40.963Z,9.27
2022-12-04T09:50:19.963Z,9.73
2022-12-04T09:51:54.328Z,10.00
2022-12-04T09:53:29.927Z,10.00
2022-12-04T09:55:04.633Z,9.20
2022-12-04T09:56:36.275Z,9.60
2022-12-04T09:58:18.941Z,10.33
2022-12-04T09:59:51.843Z,10.00
2022-12-04T10:01:43.179Z,10.37
2022-12-04T10:03:18.299Z,10.17
2022-12-04T10:04:50.017Z,11.50
2022-12-04T10:06:26.106Z,10.10
2022-12-04T10:08:20.653Z,10.97
2022-12-04T10:10:04.852Z,9.70
2022-12-04T10:12:21.481Z,9.80
2022-12-04T10:14:29.940Z,10.00
2022-12-04T10:16:11.239Z,9.80
2022-12-04T10:17:57.846Z,9.67
2022-12-04T10:19:42.184Z,10.10
2022-12-04T10:21:32.709Z,10.63
2022-12-04T10:23:21.064Z,9.40
2022-12-04T10:24:53.990Z,9.50
2022-12-04T10:26:35.765Z,9.70
2022-12-04T10:28:22.096Z,9.10
2022-12-04T10:30:01.008Z,9.23
2022-12-04T10:31:35.346Z,10.80
2022-12-04T10:33:32.173Z,9.17
2022-12-04T10:35:15.831Z,9.70
2022-12-04T10:36:52.462Z,9.60
2022-12-04T10:38:33.216Z,9.20
2022-12-04T10:40:22.064Z,9.30
2022-12-04T10:42:25.670Z,8.97
2022-12-04T10:43:57.341Z,9.80
2022-12-04T10:45:29.033Z,9.27
2022-12-04T10:47:02.903Z,9.37
2022-12-04T10:48:38.528Z,9.43
2022-12-04T10:50:19.548Z,10.30
2022-12-04T10:51:51.655Z,9.97
2022-12-04T10:53:31.337Z,9.63
2022-12-04T10:55:03.434Z,9.53
2022-12-04T10:56:36.946Z,9.00
2022-12-04T10:58:19.877Z,9.63
2022-12-04T10:59:58.103Z,9.07
2022-12-04T11:01:36.272Z,9.73
2022-12-04T11:03:27.521Z,10.00
2022-12-04T11:05:04.761Z,9.40
2022-12-04T11:06:38.563Z,9.40
2022-12-04T11:08:24.553Z,10.20
2022-12-04T11:10:18.482Z,9.50
2022-12-04T11:11:51.901Z,9.40
2022-12-04T11:13:25.542Z,10.00
2022-12-04T11:15:02.855Z,9.80
2022-12-04T11:16:42.130Z,9.80
2022-12-04T11:18:45.438Z,10.13
2022-12-04T11:20:23.987Z,10.73
2022-12-04T11:22:00.158Z,9.87
2022-12-04T11:23:47.143Z,9.80
2022-12-04T11:25:21.705Z,9.53
2022-12-04T11:26:53.921Z,9.23
2022-12-04T11:28:41.631Z,10.80
2022-12-04T11:30:19.324Z,9.53
2022-12-04T11:31:52.976Z,9.33
2022-12-04T11:33:36.770Z,9.80
2022-12-04T11:35:23.131Z,9.83
2022-12-04T11:37:01.378Z,9.20
2022-12-04T11:38:35.582Z,10.30
2022-12-04T11:40:18.343Z,9.13
2022-12-04T11:42:22.731Z,10.13
2022-12-04T11:44:00.029Z,10.63
2022-12-04T11:45:33.214Z,10.30
2022-12-04T11:47:15.871Z,10.50
2022-12-04T11:48:48.698Z,11.00
2022-12-04T11:50:43.760Z,11.23
2022-12-04T11:52:43.738Z,14.10
2022-12-04T11:54:30.547Z,13.57
2022-12-04T11:56:02.363Z,13.47
2022-12-04T11:57:46.165Z,13.13
2022-12-04T11:59:40.158Z,12.37
2022-12-04T12:01:24.439Z,13.10
2022-12-04T12:03:18.708Z,12.60
2022-12-04T12:04:59.658Z,11.63
2022-12-04T12:06:39.098Z,12.33
2022-12-04T12:08:35.005Z,12.53
2022-12-04T12:10:14.063Z,11.77
2022-12-04T12:12:08.284Z,12.30
2022-12-04T12:14:09.527Z,13.13
2022-12-04T12:16:00.910Z,11.47
2022-12-04T12:17:47.007Z,11.93
2022-12-04T12:19:37.724Z,12.60
2022-12-04T12:21:27.658Z,11.63
2022-12-04T12:23:03.433Z,11.90
2022-12-04T12:24:51.340Z,12.97
2022-12-04T12:26:40.233Z,11.63
2022-12-04T12:28:49.681Z,11.67
2022-12-04T12:30:23.508Z,12.20
2022-12-04T12:32:07.418Z,12.87
2022-12-04T12:33:53.196Z,12.50
2022-12-04T12:35:32.112Z,12.43
2022-12-04T12:37:30.432Z,11.30
2022-12-04T12:39:19.113Z,11.23
2022-12-04T12:41:05.272Z,11.70
2022-12-04T12:42:58.583Z,11.27
2022-12-04T12:44:39.634Z,11.77
2022-12-04T12:46:25.054Z,10.77
2022-12-04T12:48:02.689Z,13.17
2022-12-04T12:49:52.393Z,12.67
2022-12-04T12:51:49.498Z,11.33
2022-12-04T12:53:32.462Z,12.50
2022-12-04T12:55:19.908Z,13.17
2022-12-04T12:56:58.383Z,13.40
2022-12-04T12:58:39.178Z,12.63
2022-12-04T13:00:23.906Z,13.10
2022-12-04T13:02:16.384Z,12.33
2022-12-04T13:03:57.969Z,13.50
2022-12-04T13:05:46.334Z,13.60
2022-12-04T13:07:18.112Z,13.33
2022-12-04T13:09:04.955Z,14.47
2022-12-04T13:10:43.332Z,14.47
2022-12-04T13:12:18.117Z,14.60
2022-12-04T13:13:54.022Z,14.07
2022-12-04T13:15:48.727Z,14.20
2022-12-04T13:17:34.771Z,13.13
2022-12-04T13:19:30.252Z,13.57
2022-12-04T13:21:08.775Z,13.87
2022-12-04T13:23:01.534Z,13.40
2022-12-04T13:24:45.369Z,13.30
2022-12-04T13:26:35.970Z,11.83
2022-12-04T13:28:36.244Z,12.30
2022-12-04T13:30:36.943Z,11.63
2022-12-04T13:32:47.724Z,11.80
2022-12-04T13:34:35.285Z,12.13
2022-12-04T13:36:38.428Z,12.40
2022-12-04T13:38:16.298Z,11.33
2022-12-04T13:40:15.933Z,11.40
2022-12-04T13:42:00.847Z,10.67
2022-12-04T13:43:41.768Z,9.83
2022-12-04T13:45:32.179Z,10.33
2022-12-04T13:47:07.712Z,10.63
2022-12-04T13:48:42.576Z,9.97
2022-12-04T13:50:20.410Z,10.80
2022-12-04T13:51:54.510Z,11.30
2022-12-04T13:53:38.736Z,11.60
2022-12-04T13:55:43.151Z,11.20
2022-12-04T13:57:19.820Z,10.70
2022-12-04T13:59:06.592Z,11.23
2022-12-04T14:00:42.562Z,10.70
2022-12-04T14:02:35.435Z,11.33
2022-12-04T14:04:08.244Z,11.77
2022-12-04T14:05:42.862Z,11.17
2022-12-04T14:07:32.897Z,11.50
2022-12-04T14:09:25.191Z,11.77
2022-12-04T14:11:02.224Z,11.87
2022-12-04T14:12:39.306Z,10.80
2022-12-04T14:14:34.745Z,11.37
2022-12-04T14:16:18.502Z,12.00
2022-12-04T14:18:13.363Z,11.87
2022-12-04T14:19:52.209Z,11.77
2022-12-04T14:21:24.418Z,11.27
2022-12-04T14:23:08.322Z,12.90
2022-12-04T14:24:40.555Z,11.53
2022-12-04T14:26:26.491Z,10.90
2022-12-04T14:28:31.421Z,11.33
2022-12-04T14:30:03.931Z,11.00
2022-12-04T14:31:39.783Z,11.53
2022-12-04T14:33:24.379Z,11.07
2022-12-04T14:34:56.883Z,10.40
2022-12-04T14:36:33.457Z,11.50
2022-12-04T14:38:16.764Z,11.50
2022-12-04T14:39:50.047Z,11.57
2022-12-04T14:41:26.760Z,10.60
2022-12-04T14:43:01.322Z,10.80
2022-12-04T14:44:33.494Z,10.83
2022-12-04T14:46:39.379Z,11.43
2022-12-04T14:48:35.767Z,12.53
2022-12-04T14:50:30.034Z,11.40
2022-12-04T14:52:24.196Z,11.30
2022-12-04T14:54:40.674Z,10.50
2022-12-04T14:56:47.872Z,11.30
2022-12-04T14:58:30.347Z,11.20
2022-12-04T15:00:05.385Z,11.17
2022-12-04T15:01:38.248Z,11.20
2022-12-04T15:03:13.456Z,10.70
2022-12-04T15:04:47.288Z,11.00
2022-12-04T15:06:26.715Z,11.43
2022-12-04T15:08:05.703Z,11.40
2022-12-04T15:09:56.099Z,10.77
2022-12-04T15:11:46.308Z,10.90
2022-12-04T15:13:32.728Z,11.47
2022-12-04T15:15:27.224Z,11.03
2022-12-04T15:17:03.750Z,10.80
2022-12-04T15:18:39.571Z,11.70
2022-12-04T15:20:19.834Z,11.60
2022-12-04T15:21:54.594Z,10.43
2022-12-04T15:23:41.520Z,10.67
2022-12-04T15:25:30.778Z,11.20
2022-12-04T15:27:03.948Z,11.83
2022-12-04T15:28:47.903Z,11.83
2022-12-04T15:30:22.496Z,11.27
2022-12-04T15:32:00.540Z,11.87
2022-12-04T15:33:42.177Z,12.10
2022-12-04T15:35:22.719Z,11.67
2022-12-04T15:37:07.647Z,11.70
2022-12-04T15:38:40.458Z,11.80
2022-12-04T15:40:21.033Z,11.70
2022-12-04T15:42:04.501Z,12.27
2022-12-04T15:43:42.976Z,11.13
2022-12-04T15:45:14.601Z,11.20
2022-12-04T15:46:46.456Z,11.50
2022-12-04T15:48:31.342Z,11.83
2022-12-04T15:50:30.697Z,11.10
2022-12-04T15:52:14.952Z,11.73
2022-12-04T15:53:47.521Z,10.97
2022-12-04T15:55:21.386Z,10.43
2022-12-04T15:57:06.611Z,10.97
2022-12-04T15:58:55.111Z,10.50
2022-12-04T16:00:34.520Z,10.37
2022-12-04T16:02:20.997Z,12.23
2022-12-04T16:03:55.689Z,10.90
2022-12-04T16:05:35.703Z,11.43
2022-12-04T16:07:21.794Z,10.80
2022-12-04T16:08:56.867Z,10.23
2022-12-04T16:10:35.296Z,10.37
2022-12-04T16:12:28.827Z,9.93
2022-12-04T16:14:12.644Z,10.50
2022-12-04T16:15:45.711Z,9.57
2022-12-04T16:17:18.723Z,9.60
2022-12-04T16:18:50.366Z,10.10
2022-12-04T16:20:22.648Z,10.20
2022-12-04T16:21:55.469Z,10.27
2022-12-04T16:23:27.749Z,9.57
2022-12-04T16:25:00.291Z,11.30
2022-12-04T16:26:33.457Z,9.70
2022-12-04T16:28:05.105Z,9.63
2022-12-04T16:29:36.990Z,9.43
2022-12-04T16:31:13.370Z,10.20
2022-12-04T16:32:48.298Z,11.57
2022-12-04T16:34:20.425Z,9.20
2022-12-04T16:35:52.633Z,10.57
2022-12-04T16:37:24.541Z,10.30
2022-12-04T16:38:57.294Z,9.43
2022-12-04T16:40:29.398Z,9.77
2022-12-04T16:42:01.257Z,9.07
2022-12-04T16:43:35.837Z,10.13
2022-12-04T16:45:34.521Z,11.23
2022-12-04T16:47:06.749Z,10.73
2022-12-04T16:48:39.290Z,11.13
2022-12-04T16:50:11.782Z,10.43
2022-12-04T16:51:50.834Z,10.77
2022-12-04T16:53:22.777Z,10.93
2022-12-04T16:54:55.008Z,11.80
2022-12-04T16:56:27.737Z,11.10
2022-12-04T16:58:00.125Z,11.97
2022-12-04T16:59:32.243Z,10.90
2022-12-04T17:01:07.085Z,12.00
2022-12-04T17:02:39.438Z,11.37
2022-12-04T17:04:11.803Z,11.90
2022-12-04T17:05:43.766Z,12.47
2022-12-04T17:07:15.381Z,12.20
2022-12-04T17:08:47.104Z,13.23
2022-12-04T17:10:23.741Z,12.50
2022-12-04T17:11:56.352Z,13.50
2022-12-04T17:13:28.052Z,13.50
2022-12-04T17:14:59.838Z,13.10
2022-12-04T17:16:32.138Z,13.30
2022-12-04T17:18:10.574Z,12.57
2022-12-04T17:19:44.154Z,12.27
2022-12-04T17:21:15.873Z,13.10
2022-12-04T17:22:49.062Z,13.80
2022-12-04T17:24:22.244Z,15.27
2022-12-04T17:25:53.991Z,12.40
2022-12-04T17:27:25.750Z,13.67
2022-12-04T17:28:57.392Z,13.73
2022-12-04T17:30:32.819Z,13.37
2022-12-04T17:32:07.536Z,14.20
2022-12-04T17:33:39.155Z,13.83
2022-12-04T17:35:12.378Z,14.33
2022-12-04T17:36:44.073Z,13.97
2022-12-04T17:38:15.718Z,13.80
2022-12-04T17:39:47.508Z,16.17
2022-12-04T17:41:19.127Z,13.70
2022-12-04T17:42:50.772Z,15.00
2022-12-04T17:44:22.735Z,15.73
2022-12-04T17:45:54.920Z,13.73
2022-12-04T17:47:27.384Z,16.10
2022-12-04T17:49:03.905Z,15.10
2022-12-04T17:50:38.511Z,16.23
2022-12-04T17:52:13.663Z,15.83
2022-12-04T17:53:45.365Z,15.23
2022-12-04T17:55:17.109Z,15.70
2022-12-04T17:56:57.468Z,16.43
2022-12-04T17:58:34.344Z,16.00
2022-12-04T18:00:06.882Z,16.13
2022-12-04T18:01:43.996Z,16.63
2022-12-04T18:03:15.786Z,16.73
2022-12-04T18:04:47.432Z,16.83
2022-12-04T18:06:24.980Z,17.10
2022-12-04T18:07:56.866Z,15.90
2022-12-04T18:09:30.104Z,17.30
2022-12-04T18:11:04.693Z,16.10
2022-12-04T18:12:36.345Z,17.20
2022-12-04T18:14:12.497Z,17.27
2022-12-04T18:15:45.145Z,18.80
2022-12-04T18:17:17.543Z,19.40
2022-12-04T18:18:51.095Z,16.30
2022-12-04T18:20:22.832Z,18.40
2022-12-04T18:21:55.086Z,17.83
2022-12-04T18:23:26.867Z,17.77
2022-12-04T18:25:01.322Z,17.70
2022-12-04T18:26:35.930Z,18.57
2022-12-04T18:28:07.578Z,17.07
2022-12-04T18:29:39.482Z,16.53
2022-12-04T18:31:12.208Z,16.70
2022-12-04T18:32:45.385Z,17.20
2022-12-04T18:34:17.874Z,16.60
2022-12-04T18:35:56.867Z,17.80
2022-12-04T18:37:32.192Z,18.20
2022-12-04T18:39:14.218Z,16.57
2022-12-04T18:40:46.787Z,16.50
2022-12-04T18:42:18.643Z,18.00
2022-12-04T18:43:51.539Z,16.07
2022-12-04T18:45:26.684Z,16.40
2022-12-04T18:46:58.992Z,16.50
2022-12-04T18:48:31.545Z,16.27
2022-12-04T18:50:03.857Z,17.30
2022-12-04T18:51:43.663Z,16.30
2022-12-04T18:53:18.541Z,16.20
2022-12-04T18:54:50.758Z,16.63
2022-12-04T18:56:22.776Z,15.77
2022-12-04T18:57:55.877Z,17.37
2022-12-04T18:59:29.070Z,16.03
2022-12-04T19:01:11.560Z,16.20
2022-12-04T19:02:43.665Z,16.73
2022-12-04T19:04:18.217Z,17.10
2022-12-04T19:05:50.733Z,16.27
2022-12-04T19:07:22.444Z,17.50
2022-12-04T19:08:54.640Z,16.90
2022-12-04T19:10:28.138Z,16.53
2022-12-04T19:11:59.978Z,16.70
2022-12-04T19:13:32.496Z,16.20
2022-12-04T19:15:04.844Z,17.43
2022-12-04T19:16:36.548Z,16.17
2022-12-04T19:18:08.369Z,17.50
2022-12-04T19:19:40.080Z,17.33
2022-12-04T19:21:14.154Z,16.63
2022-12-04T19:22:46.134Z,16.23
2022-12-04T19:24:18.168Z,16.90
2022-12-04T19:25:57.359Z,18.23
2022-12-04T19:27:29.777Z,17.37
2022-12-04T19:29:02.598Z,17.13
2022-12-04T19:30:34.840Z,17.60
2022-12-04T19:32:15.260Z,17.47
2022-12-04T19:33:50.953Z,17.23
2022-12-04T19:35:22.853Z,17.10
2022-12-04T19:36:55.140Z,17.30
2022-12-04T19:38:30.532Z,16.73
2022-12-04T19:40:02.244Z,16.63
2022-12-04T19:41:35.342Z,17.27
2022-12-04T19:43:07.815Z,17.77
2022-12-04T19:44:48.707Z,16.97
2022-12-04T19:46:26.157Z,17.77
2022-12-04T19:47:57.881Z,17.33
2022-12-04T19:49:29.726Z,17.53
2022-12-04T19:51:09.028Z,17.47
2022-12-04T19:52:41.232Z,17.70
2022-12-04T19:54:14.296Z,16.90
2022-12-04T19:55:46.033Z,18.03
2022-12-04T19:57:17.929Z,18.20
2022-12-04T19:58:50.008Z,17.90
2022-12-04T20:00:21.800Z,19.10
2022-12-04T20:01:53.584Z,18.90
2022-12-04T20:03:25.296Z,18.33
2022-12-04T20:04:56.936Z,18.30
2022-12-04T20:06:30.678Z,18.90
2022-12-04T20:09:33.165Z,18.47
2022-12-04T20:11:13.458Z,19.77
2022-12-04T20:12:45.103Z,18.27
2022-12-04T20:14:16.940Z,18.47
2022-12-04T20:15:48.737Z,19.43
2022-12-04T20:17:20.420Z,20.53
2022-12-04T20:18:52.886Z,18.70
2022-12-04T20:20:25.286Z,19.47
2022-12-04T20:21:59.502Z,19.57
2022-12-04T20:23:33.629Z,19.50
2022-12-04T20:25:05.505Z,19.07
2022-12-04T20:26:39.701Z,18.93
2022-12-04T20:28:14.547Z,19.67
2022-12-04T20:29:46.419Z,18.40
2022-12-04T20:31:25.308Z,20.00
2022-12-04T20:32:57.008Z,19.00
2022-12-04T20:34:28.782Z,19.33
2022-12-04T20:36:00.830Z,19.70
2022-12-04T20:37:33.099Z,18.87
2022-12-04T20:39:06.042Z,19.07
2022-12-04T20:40:38.361Z,19.27
2022-12-04T20:42:10.109Z,19.60
2022-12-04T20:43:42.914Z,19.40
2022-12-04T20:45:14.912Z,20.17
2022-12-04T20:46:47.419Z,19.03
2022-12-04T20:48:19.140Z,19.63
2022-12-04T20:49:50.829Z,18.73
2022-12-04T20:51:24.876Z,18.87
2022-12-04T20:52:56.544Z,19.40
2022-12-04T20:54:28.222Z,19.10
2022-12-04T20:55:59.887Z,18.40
2022-12-04T20:57:32.817Z,19.67
2022-12-04T20:59:08.074Z,20.43
2022-12-04T21:00:39.904Z,18.70
2022-12-04T21:02:11.912Z,19.17
2022-12-04T21:03:44.945Z,20.30
2022-12-04T21:05:16.862Z,19.30